createdAt,value
2015-08-28T00:00:10.870Z,50.13
2015-08-28T00:00:23.277Z,50.04
2015-08-28T00:00:35.688Z,49.95
2015-08-28T00:00:48.078Z,50.04
2015-08-28T00:01:00.469Z,49.85
2015-08-28T00:01:12.828Z,50.04
2015-08-28T00:01:25.203Z,50.52
2015-08-28T00:01:36.863Z,50.71
2015-08-28T00:01:49.238Z,50.42
2015-08-28T00:02:01.613Z,50.42
2015-08-28T00:02:13.972Z,50.8
2015-08-28T00:02:26.347Z,50.9
2015-08-28T00:02:38.727Z,50.78
2015-08-28T00:02:51.086Z,50.99
2015-08-28T00:03:03.477Z,50.9
2015-08-28T00:03:15.836Z,50.87
2015-08-28T00:03:28.071Z,50.61
2015-08-28T00:03:40.464Z,50.3
2015-08-28T00:03:52.839Z,50.32
2015-08-28T00:04:05.214Z,50.42
2015-08-28T00:04:17.605Z,50.42
2015-08-28T00:04:30.013Z,50.49
2015-08-28T00:04:42.420Z,50.52
2015-08-28T00:04:54.795Z,50.71
2015-08-28T00:05:07.170Z,50.99
2015-08-28T00:05:19.529Z,50.99
2015-08-28T00:05:31.907Z,51.09
2015-08-28T00:05:44.282Z,51.09
2015-08-28T00:05:56.657Z,50.87
2015-08-28T00:06:09.032Z,50.99
2015-08-28T00:06:21.423Z,50.9
2015-08-28T00:06:33.800Z,51.37
2015-08-28T00:06:46.175Z,51.35
2015-08-28T00:06:58.550Z,50.9
2015-08-28T00:07:10.909Z,51.28
2015-08-28T00:07:23.284Z,51.37
2015-08-28T00:07:35.663Z,51.56
2015-08-28T00:07:48.038Z,51.06
2015-08-28T00:08:00.429Z,51.16
2015-08-28T00:08:12.819Z,51.16
2015-08-28T00:08:25.225Z,51.16
2015-08-28T00:08:37.618Z,51.16
2015-08-28T00:08:50.009Z,51.06
2015-08-28T00:09:02.399Z,51.16
2015-08-28T00:09:14.774Z,51.35
2015-08-28T00:09:27.149Z,51.35
2015-08-28T00:09:39.510Z,51.45
2015-08-28T00:09:51.885Z,51.35
2015-08-28T00:10:04.244Z,51.73
2015-08-28T00:10:16.619Z,51.64
2015-08-28T00:10:28.994Z,51.64
2015-08-28T00:10:41.356Z,51.82
2015-08-28T00:10:53.731Z,51.64
2015-08-28T00:11:06.106Z,51.45
2015-08-28T00:11:18.481Z,51.45
2015-08-28T00:11:30.841Z,51.45
2015-08-28T00:11:43.233Z,51.16
2015-08-28T00:11:55.624Z,51.16
2015-08-28T00:12:07.999Z,51.45
2015-08-28T00:12:20.405Z,50.97
2015-08-28T00:12:32.797Z,51.16
2015-08-28T00:12:45.203Z,51.25
2015-08-28T00:12:57.609Z,51.35
2015-08-28T00:13:10.016Z,51.35
2015-08-28T00:13:22.406Z,50.87
2015-08-28T00:13:34.769Z,50.87
2015-08-28T00:13:47.144Z,50.78
2015-08-28T00:13:59.503Z,50.78
2015-08-28T00:14:11.878Z,50.3
2015-08-28T00:14:24.253Z,49.92
2015-08-28T00:14:36.473Z,50.01
2015-08-28T00:14:48.848Z,49.92
2015-08-28T00:15:01.223Z,49.44
2015-08-28T00:15:13.582Z,49.06
2015-08-28T00:15:25.957Z,49.06
2015-08-28T00:15:38.334Z,49.26
2015-08-28T00:15:50.709Z,48.97
2015-08-28T00:16:03.084Z,49.44
2015-08-28T00:16:15.475Z,49.54
2015-08-28T00:16:27.850Z,49.73
2015-08-28T00:16:40.242Z,50.04
2015-08-28T00:16:52.633Z,50.04
2015-08-28T00:17:05.024Z,50.04
2015-08-28T00:17:17.414Z,50.3
2015-08-28T00:17:29.836Z,50.3
2015-08-28T00:17:42.213Z,50.3
2015-08-28T00:17:54.573Z,50.61
2015-08-28T00:18:06.948Z,50.71
2015-08-28T00:18:19.307Z,50.71
2015-08-28T00:18:31.698Z,50.78
2015-08-28T00:18:44.059Z,50.78
2015-08-28T00:18:56.434Z,50.8
2015-08-28T00:19:08.793Z,50.87
2015-08-28T00:19:21.153Z,50.8
2015-08-28T00:19:33.512Z,50.59
2015-08-28T00:19:45.889Z,50.52
2015-08-28T00:19:58.264Z,50.32
2015-08-28T00:20:10.655Z,50.59
2015-08-28T00:20:23.061Z,49.73
2015-08-28T00:20:35.467Z,49.76
2015-08-28T00:20:47.875Z,50.04
2015-08-28T00:21:00.282Z,50.42
2015-08-28T00:21:12.657Z,50.23
2015-08-28T00:21:25.016Z,50.42
2015-08-28T00:21:37.393Z,50.61
2015-08-28T00:21:49.768Z,50.71
2015-08-28T00:22:02.127Z,50.8
2015-08-28T00:22:14.502Z,50.99
2015-08-28T00:22:26.877Z,51.45
2015-08-28T00:22:39.254Z,51.06
2015-08-28T00:22:51.629Z,51.47
2015-08-28T00:23:03.989Z,51.35
2015-08-28T00:23:16.379Z,51.16
2015-08-28T00:23:28.739Z,51.45
2015-08-28T00:23:41.116Z,51.25
2015-08-28T00:23:53.506Z,51.35
2015-08-28T00:24:05.881Z,51.35
2015-08-28T00:24:18.256Z,50.87
2015-08-28T00:24:30.663Z,50.4
2015-08-28T00:24:43.071Z,50.49
2015-08-28T00:24:55.477Z,50.4
2015-08-28T00:25:07.883Z,49.73
2015-08-28T00:25:20.258Z,50.01
2015-08-28T00:25:32.649Z,50.11
2015-08-28T00:25:45.026Z,50.04
2015-08-28T00:25:57.385Z,49.92
2015-08-28T00:26:09.760Z,49.95
2015-08-28T00:26:22.120Z,49.95
2015-08-28T00:26:34.495Z,49.92
2015-08-28T00:26:46.887Z,50.13
2015-08-28T00:26:59.247Z,50.23
2015-08-28T00:27:11.622Z,50.21
2015-08-28T00:27:23.997Z,49.85
2015-08-28T00:27:36.372Z,50.04
2015-08-28T00:27:48.748Z,50.13
2015-08-28T00:28:01.123Z,50.01
2015-08-28T00:28:13.513Z,49.35
2015-08-28T00:28:25.888Z,49.26
2015-08-28T00:28:37.592Z,49.16
2015-08-28T00:28:49.985Z,49.06
2015-08-28T00:29:02.376Z,49.28
2015-08-28T00:29:14.782Z,49.44
2015-08-28T00:29:27.188Z,49.47
2015-08-28T00:29:39.595Z,49.47
2015-08-28T00:29:51.955Z,49.63
2015-08-28T00:30:04.346Z,49.76
2015-08-28T00:30:16.705Z,49.47
2015-08-28T00:30:29.080Z,49.35
2015-08-28T00:30:41.455Z,48.9
2015-08-28T00:30:53.832Z,49.16
2015-08-28T00:31:06.207Z,49.26
2015-08-28T00:31:18.566Z,49.28
2015-08-28T00:31:30.941Z,49.54
2015-08-28T00:31:43.334Z,49.08
2015-08-28T00:31:55.693Z,49.35
2015-08-28T00:32:08.068Z,49.56
2015-08-28T00:32:20.475Z,49.85
2015-08-28T00:32:32.850Z,50.04
2015-08-28T00:32:45.242Z,50.23
2015-08-28T00:32:57.633Z,49.95
2015-08-28T00:33:10.023Z,49.92
2015-08-28T00:33:22.430Z,50.21
2015-08-28T00:33:34.836Z,50.23
2015-08-28T00:33:47.229Z,49.82
2015-08-28T00:33:59.604Z,49.95
2015-08-28T00:34:11.979Z,49.76
2015-08-28T00:34:24.354Z,49.76
2015-08-28T00:34:36.729Z,50.11
2015-08-28T00:34:49.106Z,49.92
2015-08-28T00:35:01.465Z,50.04
2015-08-28T00:35:13.840Z,50.11
2015-08-28T00:35:26.199Z,50.11
2015-08-28T00:35:38.574Z,50.01
2015-08-28T00:35:50.951Z,50.01
2015-08-28T00:36:03.326Z,50.01
2015-08-28T00:36:15.686Z,50.11
2015-08-28T00:36:28.061Z,50.01
2015-08-28T00:36:40.436Z,50.04
2015-08-28T00:36:52.094Z,50.01
2015-08-28T00:37:04.485Z,49.73
2015-08-28T00:37:16.891Z,49.73
2015-08-28T00:37:29.266Z,49.82
2015-08-28T00:37:41.672Z,50.21
2015-08-28T00:37:54.080Z,50.21
2015-08-28T00:38:06.487Z,50.13
2015-08-28T00:38:18.893Z,49.73
2015-08-28T00:38:31.252Z,50.21
2015-08-28T00:38:43.627Z,50.49
2015-08-28T00:38:55.285Z,50.59
2015-08-28T00:39:07.660Z,50.49
2015-08-28T00:39:20.035Z,50.4
2015-08-28T00:39:32.395Z,50.3
2015-08-28T00:39:44.770Z,50.49
2015-08-28T00:39:57.146Z,50.4
2015-08-28T00:40:09.505Z,50.68
2015-08-28T00:40:21.880Z,50.49
2015-08-28T00:40:34.255Z,50.21
2015-08-28T00:40:46.617Z,50.21
2015-08-28T00:40:59.023Z,50.59
2015-08-28T00:41:11.398Z,50.97
2015-08-28T00:41:23.788Z,50.78
2015-08-28T00:41:36.195Z,50.97
2015-08-28T00:41:48.588Z,51.06
2015-08-28T00:42:00.979Z,51.06
2015-08-28T00:42:13.370Z,51.06
2015-08-28T00:42:25.057Z,50.78
2015-08-28T00:42:37.432Z,51.35
2015-08-28T00:42:49.792Z,51.25
2015-08-28T00:43:02.167Z,51.54
2015-08-28T00:43:13.839Z,51.64
2015-08-28T00:43:26.214Z,51.73
2015-08-28T00:43:38.574Z,51.25
2015-08-28T00:43:50.966Z,51.35
2015-08-28T00:44:03.326Z,51.45
2015-08-28T00:44:15.701Z,51.73
2015-08-28T00:44:28.076Z,51.64
2015-08-28T00:44:40.466Z,51.45
2015-08-28T00:44:52.843Z,51.73
2015-08-28T00:45:05.203Z,51.45
2015-08-28T00:45:17.593Z,51.73
2015-08-28T00:45:29.984Z,51.45
2015-08-28T00:45:42.375Z,51.54
2015-08-28T00:45:54.783Z,51.64
2015-08-28T00:46:07.189Z,51.16
2015-08-28T00:46:19.580Z,51.64
2015-08-28T00:46:31.986Z,51.45
2015-08-28T00:46:44.377Z,51.45
2015-08-28T00:46:56.755Z,51.45
2015-08-28T00:47:09.114Z,51.82
2015-08-28T00:47:21.489Z,51.35
2015-08-28T00:47:33.864Z,51.16
2015-08-28T00:47:46.239Z,51.64
2015-08-28T00:47:58.615Z,51.73
2015-08-28T00:48:10.990Z,51.45
2015-08-28T00:48:23.349Z,51.54
2015-08-28T00:48:35.724Z,51.54
2015-08-28T00:48:48.099Z,51.35
2015-08-28T00:49:00.461Z,51.25
2015-08-28T00:49:12.836Z,51.54
2015-08-28T00:49:25.195Z,51.06
2015-08-28T00:49:37.586Z,51.25
2015-08-28T00:49:49.961Z,51.45
2015-08-28T00:50:02.369Z,51.54
2015-08-28T00:50:14.775Z,51.16
2015-08-28T00:50:27.181Z,51.25
2015-08-28T00:50:39.588Z,51.35
2015-08-28T00:50:51.996Z,51.35
2015-08-28T00:51:04.355Z,51.64
2015-08-28T00:51:16.730Z,51.73
2015-08-28T00:51:29.090Z,51.54
2015-08-28T00:51:41.465Z,51.35
2015-08-28T00:51:53.826Z,51.45
2015-08-28T00:52:06.201Z,51.64
2015-08-28T00:52:18.576Z,51.45
2015-08-28T00:52:30.951Z,51.73
2015-08-28T00:52:43.326Z,51.73
2015-08-28T00:52:55.000Z,52.11
2015-08-28T00:53:07.359Z,51.92
2015-08-28T00:53:19.766Z,51.82
2015-08-28T00:53:32.156Z,51.64
2015-08-28T00:53:44.531Z,51.82
2015-08-28T00:53:56.907Z,52.01
2015-08-28T00:54:09.329Z,51.82
2015-08-28T00:54:21.720Z,51.82
2015-08-28T00:54:34.110Z,52.01
2015-08-28T00:54:46.532Z,51.82
2015-08-28T00:54:58.926Z,52.4
2015-08-28T00:55:11.316Z,52.01
2015-08-28T00:55:23.676Z,52.4
2015-08-28T00:55:36.051Z,52.4
2015-08-28T00:55:48.426Z,52.3
2015-08-28T00:56:00.787Z,52.49
2015-08-28T00:56:13.162Z,52.59
2015-08-28T00:56:25.537Z,52.3
2015-08-28T00:56:37.912Z,52.4
2015-08-28T00:56:50.272Z,52.49
2015-08-28T00:57:02.633Z,52.4
2015-08-28T00:57:15.008Z,52.59
2015-08-28T00:57:27.367Z,52.59
2015-08-28T00:57:39.742Z,52.49
2015-08-28T00:57:52.117Z,52.49
2015-08-28T00:58:04.493Z,52.49
2015-08-28T00:58:16.868Z,52.01
2015-08-28T00:58:29.259Z,52.4
2015-08-28T00:58:41.681Z,52.3
2015-08-28T00:58:54.073Z,52.68
2015-08-28T00:59:06.448Z,52.4
2015-08-28T00:59:18.855Z,52.59
2015-08-28T00:59:31.214Z,52.59
2015-08-28T00:59:43.589Z,52.68
2015-08-28T00:59:55.951Z,52.87
2015-08-28T01:00:08.326Z,52.87
2015-08-28T01:00:20.701Z,52.97
2015-08-28T01:00:33.076Z,53.06
2015-08-28T01:00:45.451Z,52.87
2015-08-28T01:00:57.827Z,52.87
2015-08-28T01:01:10.187Z,52.78
2015-08-28T01:01:22.562Z,52.78
2015-08-28T01:01:34.937Z,52.87
2015-08-28T01:01:47.312Z,52.97
2015-08-28T01:01:59.704Z,53.16
2015-08-28T01:02:12.095Z,52.97
2015-08-28T01:02:24.486Z,52.87
2015-08-28T01:02:36.892Z,52.78
2015-08-28T01:02:49.298Z,52.78
2015-08-28T01:03:01.706Z,52.78
2015-08-28T01:03:14.081Z,52.87
2015-08-28T01:03:26.456Z,52.78
2015-08-28T01:03:38.831Z,52.87
2015-08-28T01:03:51.206Z,52.97
2015-08-28T01:04:03.583Z,52.97
2015-08-28T01:04:15.958Z,52.87
2015-08-28T01:04:27.615Z,52.78
2015-08-28T01:04:39.990Z,52.59
2015-08-28T01:04:52.349Z,52.4
2015-08-28T01:05:04.742Z,52.59
2015-08-28T01:05:17.101Z,52.01
2015-08-28T01:05:29.476Z,52.4
2015-08-28T01:05:41.851Z,52.49
2015-08-28T01:05:54.226Z,52.78
2015-08-28T01:06:06.603Z,52.59
2015-08-28T01:06:18.994Z,52.59
2015-08-28T01:06:31.400Z,52.59
2015-08-28T01:06:43.791Z,52.4
2015-08-28T01:06:56.197Z,52.68
2015-08-28T01:07:08.589Z,52.4
2015-08-28T01:07:20.277Z,52.2
2015-08-28T01:07:32.652Z,52.01
2015-08-28T01:07:45.027Z,51.92
2015-08-28T01:07:57.402Z,51.92
2015-08-28T01:08:09.779Z,51.92
2015-08-28T01:08:22.154Z,51.92
2015-08-28T01:08:34.529Z,51.73
2015-08-28T01:08:46.888Z,51.92
2015-08-28T01:08:59.250Z,51.82
2015-08-28T01:09:11.625Z,51.64
2015-08-28T01:09:23.984Z,52.11
2015-08-28T01:09:36.359Z,51.54
2015-08-28T01:09:48.734Z,51.82
2015-08-28T01:10:00.391Z,51.64
2015-08-28T01:10:12.782Z,51.82
2015-08-28T01:10:25.157Z,51.54
2015-08-28T01:10:37.563Z,51.82
2015-08-28T01:10:49.969Z,51.82
2015-08-28T01:11:02.363Z,52.01
2015-08-28T01:11:14.785Z,51.92
2015-08-28T01:11:27.191Z,52.01
2015-08-28T01:11:39.566Z,52.01
2015-08-28T01:11:51.941Z,51.92
2015-08-28T01:12:04.317Z,51.82
2015-08-28T01:12:16.677Z,52.01
2015-08-28T01:12:29.036Z,51.92
2015-08-28T01:12:41.411Z,51.73
2015-08-28T01:12:53.786Z,51.73
2015-08-28T01:13:06.163Z,51.92
2015-08-28T01:13:18.522Z,51.82
2015-08-28T01:13:30.913Z,51.82
2015-08-28T01:13:43.288Z,51.92
2015-08-28T01:13:55.663Z,51.82
2015-08-28T01:14:07.885Z,52.11
2015-08-28T01:14:20.260Z,51.82
2015-08-28T01:14:32.635Z,52.01
2015-08-28T01:14:45.025Z,52.4
2015-08-28T01:14:57.432Z,52.4
2015-08-28T01:15:09.823Z,52.49
2015-08-28T01:15:22.229Z,52.3
2015-08-28T01:15:34.620Z,52.68
2015-08-28T01:15:46.995Z,52.4
2015-08-28T01:15:59.370Z,52.4
2015-08-28T01:16:11.731Z,52.59
2015-08-28T01:16:24.106Z,52.49
2015-08-28T01:16:36.466Z,52.3
2015-08-28T01:16:48.825Z,52.68
2015-08-28T01:17:01.200Z,52.59
2015-08-28T01:17:13.578Z,52.59
2015-08-28T01:17:25.953Z,52.59
2015-08-28T01:17:38.313Z,52.59
2015-08-28T01:17:50.688Z,52.59
2015-08-28T01:18:03.048Z,52.49
2015-08-28T01:18:15.423Z,52.68
2015-08-28T01:18:27.829Z,52.78
2015-08-28T01:18:40.204Z,52.78
2015-08-28T01:18:52.595Z,52.87
2015-08-28T01:19:04.987Z,52.78
2015-08-28T01:19:17.394Z,52.87
2015-08-28T01:19:29.800Z,52.78
2015-08-28T01:19:42.206Z,52.78
2015-08-28T01:19:54.597Z,52.78
2015-08-28T01:20:06.974Z,52.78
2015-08-28T01:20:19.333Z,52.87
2015-08-28T01:20:31.693Z,52.78
2015-08-28T01:20:44.068Z,52.87
2015-08-28T01:20:55.724Z,52.87
2015-08-28T01:21:08.116Z,52.87
2015-08-28T01:21:20.491Z,53.16
2015-08-28T01:21:32.851Z,52.97
2015-08-28T01:21:45.226Z,52.87
2015-08-28T01:21:57.616Z,52.78
2015-08-28T01:22:09.992Z,52.78
2015-08-28T01:22:22.367Z,52.87
2015-08-28T01:22:34.789Z,52.87
2015-08-28T01:22:46.461Z,52.68
2015-08-28T01:22:58.149Z,52.87
2015-08-28T01:23:10.574Z,53.06
2015-08-28T01:23:22.964Z,53.06
2015-08-28T01:23:35.339Z,53.35
2015-08-28T01:23:47.714Z,53.54
2015-08-28T01:24:00.089Z,53.54
2015-08-28T01:24:12.482Z,53.35
2015-08-28T01:24:24.841Z,53.06
2015-08-28T01:24:37.216Z,53.44
2015-08-28T01:24:49.591Z,53.25
2015-08-28T01:25:01.982Z,53.16
2015-08-28T01:25:14.359Z,53.54
2015-08-28T01:25:26.718Z,53.04
2015-08-28T01:25:39.109Z,53.35
2015-08-28T01:25:51.484Z,53.13
2015-08-28T01:26:03.861Z,52.97
2015-08-28T01:26:15.533Z,52.94
2015-08-28T01:26:27.908Z,53.06
2015-08-28T01:26:40.298Z,53.06
2015-08-28T01:26:52.705Z,53.35
2015-08-28T01:27:05.096Z,53.04
2015-08-28T01:27:17.487Z,53.54
2015-08-28T01:27:29.893Z,53.61
2015-08-28T01:27:42.268Z,53.44
2015-08-28T01:27:54.659Z,53.44
2015-08-28T01:28:07.037Z,53.35
2015-08-28T01:28:19.396Z,53.16
2015-08-28T01:28:31.771Z,52.87
2015-08-28T01:28:44.146Z,52.78
2015-08-28T01:28:56.521Z,52.87
2015-08-28T01:29:08.928Z,52.78
2015-08-28T01:29:21.303Z,52.87
2015-08-28T01:29:33.663Z,52.78
2015-08-28T01:29:46.038Z,52.87
2015-08-28T01:29:58.413Z,52.87
2015-08-28T01:30:10.790Z,52.68
2015-08-28T01:30:23.165Z,53.35
2015-08-28T01:30:35.555Z,53.06
2015-08-28T01:30:47.946Z,53.35
2015-08-28T01:31:00.337Z,53.35
2015-08-28T01:31:12.745Z,53.25
2015-08-28T01:31:25.135Z,53.25
2015-08-28T01:31:37.526Z,53.44
2015-08-28T01:31:49.901Z,53.44
2015-08-28T01:32:02.276Z,53.44
2015-08-28T01:32:14.653Z,53.54
2015-08-28T01:32:27.028Z,53.35
2015-08-28T01:32:39.403Z,53.35
2015-08-28T01:32:51.778Z,53.44
2015-08-28T01:33:04.137Z,53.73
2015-08-28T01:33:16.515Z,53.54
2015-08-28T01:33:28.890Z,52.97
2015-08-28T01:33:41.250Z,52.87
2015-08-28T01:33:53.625Z,52.97
2015-08-28T01:34:06.000Z,53.92
2015-08-28T01:34:18.376Z,53.64
2015-08-28T01:34:30.751Z,53.54
2015-08-28T01:34:43.126Z,53.92
2015-08-28T01:34:55.516Z,53.73
2015-08-28T01:35:07.925Z,53.64
2015-08-28T01:35:20.315Z,53.54
2015-08-28T01:35:32.706Z,53.92
2015-08-28T01:35:45.097Z,53.64
2015-08-28T01:35:57.503Z,53.64
2015-08-28T01:36:09.895Z,53.83
2015-08-28T01:36:22.255Z,53.64
2015-08-28T01:36:34.630Z,53.83
2015-08-28T01:36:47.005Z,53.64
2015-08-28T01:36:59.380Z,53.73
2015-08-28T01:37:11.741Z,53.73
2015-08-28T01:37:24.132Z,53.73
2015-08-28T01:37:36.507Z,53.64
2015-08-28T01:37:48.866Z,53.64
2015-08-28T01:38:01.257Z,53.92
2015-08-28T01:38:13.617Z,53.83
2015-08-28T01:38:25.992Z,53.83
2015-08-28T01:38:38.367Z,53.83
2015-08-28T01:38:50.742Z,53.73
2015-08-28T01:39:03.117Z,53.92
2015-08-28T01:39:15.355Z,53.92
2015-08-28T01:39:27.761Z,53.54
2015-08-28T01:39:40.136Z,53.54
2015-08-28T01:39:52.526Z,53.64
2015-08-28T01:40:04.901Z,53.92
2015-08-28T01:40:17.294Z,54.02
2015-08-28T01:40:29.653Z,53.83
2015-08-28T01:40:42.028Z,53.44
2015-08-28T01:40:54.403Z,53.83
2015-08-28T01:41:06.778Z,53.83
2015-08-28T01:41:19.154Z,53.92
2015-08-28T01:41:31.514Z,53.73
2015-08-28T01:41:43.904Z,53.83
2015-08-28T01:41:56.279Z,53.83
2015-08-28T01:42:08.654Z,53.83
2015-08-28T01:42:21.016Z,53.83
2015-08-28T01:42:33.391Z,53.73
2015-08-28T01:42:45.766Z,53.73
2015-08-28T01:42:58.156Z,53.92
2015-08-28T01:43:10.533Z,53.73
2015-08-28T01:43:22.908Z,53.92
2015-08-28T01:43:35.315Z,53.73
2015-08-28T01:43:47.721Z,53.64
2015-08-28T01:44:00.127Z,53.99
2015-08-28T01:44:12.520Z,54.02
2015-08-28T01:44:24.926Z,53.99
2015-08-28T01:44:37.285Z,53.92
2015-08-28T01:44:49.660Z,53.99
2015-08-28T01:45:02.051Z,54.18
2015-08-28T01:45:14.272Z,54.37
2015-08-28T01:45:26.647Z,54.27
2015-08-28T01:45:39.006Z,53.99
2015-08-28T01:45:51.381Z,53.99
2015-08-28T01:46:03.756Z,53.83
2015-08-28T01:46:16.133Z,54.27
2015-08-28T01:46:28.508Z,54.18
2015-08-28T01:46:40.883Z,54.18
2015-08-28T01:46:53.258Z,54.02
2015-08-28T01:47:05.633Z,54.08
2015-08-28T01:47:18.010Z,54.56
2015-08-28T01:47:30.385Z,54.08
2015-08-28T01:47:42.807Z,54.08
2015-08-28T01:47:55.198Z,54.39
2015-08-28T01:48:07.604Z,53.99
2015-08-28T01:48:20.012Z,54.27
2015-08-28T01:48:32.418Z,54.37
2015-08-28T01:48:44.793Z,54.11
2015-08-28T01:48:57.168Z,54.08
2015-08-28T01:49:09.528Z,54.37
2015-08-28T01:49:21.889Z,54.18
2015-08-28T01:49:34.264Z,54.27
2015-08-28T01:49:46.639Z,53.99
2015-08-28T01:49:58.999Z,53.89
2015-08-28T01:50:11.389Z,54.02
2015-08-28T01:50:23.754Z,54.3
2015-08-28T01:50:36.129Z,54.27
2015-08-28T01:50:48.504Z,54.59
2015-08-28T01:51:00.864Z,54.47
2015-08-28T01:51:13.239Z,54.66
2015-08-28T01:51:25.616Z,54.47
2015-08-28T01:51:37.991Z,54.18
2015-08-28T01:51:50.366Z,54.47
2015-08-28T01:52:02.772Z,54.75
2015-08-28T01:52:15.165Z,54.27
2015-08-28T01:52:27.571Z,54.47
2015-08-28T01:52:39.962Z,54.47
2015-08-28T01:52:52.352Z,54.37
2015-08-28T01:53:04.727Z,54.37
2015-08-28T01:53:17.089Z,54.47
2015-08-28T01:53:29.464Z,54.66
2015-08-28T01:53:41.823Z,54.47
2015-08-28T01:53:54.198Z,54.37
2015-08-28T01:54:06.557Z,54.47
2015-08-28T01:54:18.934Z,54.18
2015-08-28T01:54:31.309Z,54.18
2015-08-28T01:54:43.684Z,54.27
2015-08-28T01:54:56.059Z,54.27
2015-08-28T01:55:08.419Z,54.18
2015-08-28T01:55:20.780Z,54.27
2015-08-28T01:55:33.171Z,53.89
2015-08-28T01:55:45.546Z,53.99
2015-08-28T01:55:57.921Z,53.99
2015-08-28T01:56:10.311Z,53.99
2015-08-28T01:56:22.719Z,54.18
2015-08-28T01:56:35.109Z,54.18
2015-08-28T01:56:47.515Z,53.89
2015-08-28T01:56:59.219Z,54.18
2015-08-28T01:57:11.656Z,54.08
2015-08-28T01:57:24.018Z,53.89
2015-08-28T01:57:36.393Z,54.02
2015-08-28T01:57:48.753Z,53.89
2015-08-28T01:58:01.128Z,53.99
2015-08-28T01:58:13.503Z,53.7
2015-08-28T01:58:25.880Z,54.27
2015-08-28T01:58:38.286Z,54.37
2015-08-28T01:58:50.661Z,54.68
2015-08-28T01:59:03.020Z,54.56
2015-08-28T01:59:15.395Z,53.7
2015-08-28T01:59:27.771Z,54.18
2015-08-28T01:59:40.131Z,54.47
2015-08-28T01:59:52.506Z,53.8
2015-08-28T02:00:04.896Z,54.08
2015-08-28T02:00:17.271Z,53.99
2015-08-28T02:00:29.665Z,54.08
2015-08-28T02:00:42.056Z,53.99
2015-08-28T02:00:54.462Z,53.99
2015-08-28T02:01:06.853Z,53.99
2015-08-28T02:01:19.259Z,54.27
2015-08-28T02:01:31.650Z,54.08
2015-08-28T02:01:44.025Z,54.27
2015-08-28T02:01:56.385Z,54.39
2015-08-28T02:02:08.760Z,54.27
2015-08-28T02:02:21.121Z,54.27
2015-08-28T02:02:33.496Z,53.92
2015-08-28T02:02:45.871Z,53.99
2015-08-28T02:02:58.246Z,54.18
2015-08-28T02:03:10.637Z,53.92
2015-08-28T02:03:22.998Z,53.83
2015-08-28T02:03:35.373Z,54.47
2015-08-28T02:03:47.733Z,53.89
2015-08-28T02:04:00.092Z,53.99
2015-08-28T02:04:12.483Z,54.08
2015-08-28T02:04:24.861Z,53.89
2015-08-28T02:04:37.236Z,54.18
2015-08-28T02:04:49.626Z,54.08
2015-08-28T02:05:02.032Z,54.18
2015-08-28T02:05:14.439Z,54.18
2015-08-28T02:05:26.830Z,54.18
2015-08-28T02:05:39.237Z,54.02
2015-08-28T02:05:51.643Z,54.08
2015-08-28T02:06:04.018Z,53.89
2015-08-28T02:06:16.393Z,54.18
2015-08-28T02:06:28.754Z,54.18
2015-08-28T02:06:41.114Z,54.08
2015-08-28T02:06:53.489Z,54.39
2015-08-28T02:07:05.864Z,54.21
2015-08-28T02:07:18.223Z,54.18
2015-08-28T02:07:30.600Z,54.08
2015-08-28T02:07:42.975Z,53.92
2015-08-28T02:07:55.350Z,54.02
2015-08-28T02:08:07.709Z,54.3
2015-08-28T02:08:20.084Z,54.37
2015-08-28T02:08:32.477Z,54.27
2015-08-28T02:08:44.868Z,54.66
2015-08-28T02:08:57.258Z,54.78
2015-08-28T02:09:09.649Z,54.27
2015-08-28T02:09:22.039Z,54.39
2015-08-28T02:09:34.447Z,54.27
2015-08-28T02:09:46.837Z,54.37
2015-08-28T02:09:59.228Z,54.56
2015-08-28T02:10:11.634Z,54.75
2015-08-28T02:10:23.996Z,54.18
2015-08-28T02:10:36.355Z,54.75
2015-08-28T02:10:48.746Z,54.47
2015-08-28T02:11:01.121Z,54.37
2015-08-28T02:11:13.496Z,54.37
2015-08-28T02:11:25.858Z,54.27
2015-08-28T02:11:38.233Z,54.18
2015-08-28T02:11:50.608Z,54.18
2015-08-28T02:12:02.967Z,53.99
2015-08-28T02:12:15.342Z,54.37
2015-08-28T02:12:27.719Z,54.59
2015-08-28T02:12:40.094Z,54.49
2015-08-28T02:12:52.485Z,54.18
2015-08-28T02:13:04.860Z,54.37
2015-08-28T02:13:17.251Z,54.27
2015-08-28T02:13:29.642Z,54.37
2015-08-28T02:13:42.033Z,54.27
2015-08-28T02:13:54.439Z,54.39
2015-08-28T02:14:06.830Z,53.92
2015-08-28T02:14:19.220Z,54.08
2015-08-28T02:14:31.582Z,54.27
2015-08-28T02:14:43.957Z,54.59
2015-08-28T02:14:56.332Z,54.56
2015-08-28T02:15:08.707Z,54.56
2015-08-28T02:15:21.082Z,54.75
2015-08-28T02:15:33.443Z,54.66
2015-08-28T02:15:45.849Z,54.56
2015-08-28T02:15:58.209Z,54.66
2015-08-28T02:16:10.584Z,54.66
2015-08-28T02:16:22.959Z,54.97
2015-08-28T02:16:35.337Z,54.85
2015-08-28T02:16:47.696Z,54.85
2015-08-28T02:17:00.071Z,55.04
2015-08-28T02:17:11.743Z,54.66
2015-08-28T02:17:24.118Z,54.47
2015-08-28T02:17:36.510Z,54.75
2015-08-28T02:17:48.916Z,54.75
2015-08-28T02:18:01.322Z,54.66
2015-08-28T02:18:13.713Z,54.68
2015-08-28T02:18:26.119Z,54.47
2015-08-28T02:18:38.496Z,54.56
2015-08-28T02:18:50.871Z,54.56
2015-08-28T02:19:03.230Z,54.66
2015-08-28T02:19:15.605Z,54.56
2015-08-28T02:19:27.982Z,54.66
2015-08-28T02:19:40.342Z,54.47
2015-08-28T02:19:52.717Z,54.75
2015-08-28T02:20:05.076Z,55.04
2015-08-28T02:20:17.435Z,54.94
2015-08-28T02:20:29.797Z,54.85
2015-08-28T02:20:42.172Z,54.85
2015-08-28T02:20:54.547Z,55.13
2015-08-28T02:21:06.922Z,55.04
2015-08-28T02:21:19.297Z,55.13
2015-08-28T02:21:31.674Z,55.04
2015-08-28T02:21:44.064Z,55.04
2015-08-28T02:21:56.471Z,55.04
2015-08-28T02:22:08.861Z,55.04
2015-08-28T02:22:21.252Z,55.22
2015-08-28T02:22:33.660Z,55.22
2015-08-28T02:22:46.082Z,55.13
2015-08-28T02:22:58.457Z,55.32
2015-08-28T02:23:10.816Z,55.13
2015-08-28T02:23:23.223Z,55.13
2015-08-28T02:23:35.600Z,55.04
2015-08-28T02:23:47.975Z,55.13
2015-08-28T02:24:00.350Z,55.13
2015-08-28T02:24:12.709Z,55.13
2015-08-28T02:24:25.084Z,55.04
2015-08-28T02:24:37.445Z,55.42
2015-08-28T02:24:49.836Z,55.42
2015-08-28T02:25:02.211Z,55.42
2015-08-28T02:25:14.570Z,55.32
2015-08-28T02:25:26.945Z,55.42
2015-08-28T02:25:39.322Z,55.32
2015-08-28T02:25:51.697Z,55.51
2015-08-28T02:26:04.104Z,55.42
2015-08-28T02:26:16.494Z,55.61
2015-08-28T02:26:28.901Z,55.61
2015-08-28T02:26:41.293Z,55.51
2015-08-28T02:26:53.684Z,55.7
2015-08-28T02:27:06.059Z,55.8
2015-08-28T02:27:18.434Z,55.9
2015-08-28T02:27:30.811Z,55.7
2015-08-28T02:27:43.186Z,55.7
2015-08-28T02:27:55.545Z,55.8
2015-08-28T02:28:07.920Z,55.8
2015-08-28T02:28:20.295Z,55.7
2015-08-28T02:28:32.688Z,55.9
2015-08-28T02:28:45.063Z,55.9
2015-08-28T02:28:57.438Z,55.7
2015-08-28T02:29:09.828Z,55.9
2015-08-28T02:29:22.188Z,55.9
2015-08-28T02:29:34.564Z,55.8
2015-08-28T02:29:46.939Z,55.7
2015-08-28T02:29:59.314Z,55.9
2015-08-28T02:30:11.689Z,55.7
2015-08-28T02:30:24.095Z,55.7
2015-08-28T02:30:36.489Z,55.8
2015-08-28T02:30:48.879Z,55.8
2015-08-28T02:31:01.286Z,55.99
2015-08-28T02:31:13.676Z,55.7
2015-08-28T02:31:26.036Z,55.8
2015-08-28T02:31:38.413Z,55.7
2015-08-28T02:31:50.772Z,55.7
2015-08-28T02:32:03.147Z,55.8
2015-08-28T02:32:15.522Z,55.9
2015-08-28T02:32:27.897Z,55.7
2015-08-28T02:32:40.258Z,55.61
2015-08-28T02:32:51.930Z,55.61
2015-08-28T02:33:04.290Z,55.9
2015-08-28T02:33:16.665Z,55.8
2015-08-28T02:33:29.040Z,55.8
2015-08-28T02:33:41.401Z,55.7
2015-08-28T02:33:53.792Z,55.8
2015-08-28T02:34:06.182Z,55.8
2015-08-28T02:34:18.557Z,55.9
2015-08-28T02:34:30.948Z,55.7
2015-08-28T02:34:43.355Z,55.7
2015-08-28T02:34:55.746Z,55.99
2015-08-28T02:35:08.152Z,56.09
2015-08-28T02:35:20.574Z,55.8
2015-08-28T02:35:32.935Z,55.8
2015-08-28T02:35:45.295Z,55.8
2015-08-28T02:35:57.670Z,56.09
2015-08-28T02:36:10.045Z,56.09
2015-08-28T02:36:22.420Z,56.18
2015-08-28T02:36:34.797Z,56.18
2015-08-28T02:36:47.172Z,56.09
2015-08-28T02:36:59.531Z,55.99
2015-08-28T02:37:11.922Z,56.09
2015-08-28T02:37:24.297Z,56.09
2015-08-28T02:37:36.674Z,55.9
2015-08-28T02:37:49.033Z,55.99
2015-08-28T02:38:01.424Z,55.99
2015-08-28T02:38:13.799Z,56.18
2015-08-28T02:38:26.174Z,56.18
2015-08-28T02:38:38.566Z,56.18
2015-08-28T02:38:50.957Z,56.09
2015-08-28T02:39:03.347Z,55.99
2015-08-28T02:39:15.754Z,56.09
2015-08-28T02:39:28.160Z,56.65
2015-08-28T02:39:40.568Z,56.65
2015-08-28T02:39:52.928Z,56.75